Time;durP1;ratioP1;P1;durP2;ratioP2;P2;SDS_P1;SDS_P2;PMS_P1;PMS_P2;Temp;Humidity;BMP_temperature;BMP_pressure;BME280_temperature;BME280_humidity;BME280_pressure;Samples;Min_cycle;Max_cycle;Signal;HPM_P1;HPM_P2
2021/08/21 00:02:05;;;;;;;8.57;5.40;;;14.40;99.90;;;;;;5155157;28;20296;-62
2021/08/21 00:04:37;;;;;;;9.57;5.73;;;14.40;99.90;;;;;;5155680;28;20515;-62
2021/08/21 00:07:09;;;;;;;8.57;5.70;;;14.40;99.90;;;;;;5154663;28;20280;-63
2021/08/21 00:09:42;;;;;;;10.50;5.50;;;14.40;99.90;;;;;;5160184;28;20203;-63
2021/08/21 00:12:14;;;;;;;7.77;5.63;;;14.40;99.90;;;;;;5156434;28;20204;-60
2021/08/21 00:14:46;;;;;;;12.13;6.20;;;14.40;99.90;;;;;;5159067;28;20196;-63
2021/08/21 00:17:19;;;;;;;10.43;5.97;;;14.40;99.90;;;;;;5151018;28;20195;-63
2021/08/21 00:19:51;;;;;;;10.67;6.57;;;14.40;99.90;;;;;;5157344;28;20199;-61
2021/08/21 00:22:25;;;;;;;11.97;6.53;;;14.40;99.90;;;;;;5159973;28;20203;-63
2021/08/21 00:24:59;;;;;;;8.57;5.57;;;14.40;99.90;;;;;;5153171;28;20224;-62
2021/08/21 00:27:33;;;;;;;8.20;5.87;;;14.30;99.90;;;;;;5152969;28;20198;-63
2021/08/21 00:30:06;;;;;;;7.67;5.30;;;14.20;99.90;;;;;;5155806;28;20202;-62
2021/08/21 00:32:38;;;;;;;7.00;4.20;;;14.20;99.90;;;;;;5163428;28;20208;-61
2021/08/21 00:35:11;;;;;;;8.60;4.40;;;14.10;99.90;;;;;;5165699;28;20632;-63
2021/08/21 00:37:43;;;;;;;6.03;4.10;;;14.10;99.90;;;;;;5158814;28;20608;-61
2021/08/21 00:40:15;;;;;;;8.03;4.10;;;14.00;99.90;;;;;;5156576;28;20327;-62
2021/08/21 00:42:51;;;;;;;4.73;3.17;;;14.00;99.90;;;;;;5151792;28;20215;-61
2021/08/21 00:45:23;;;;;;;6.43;3.43;;;14.00;99.90;;;;;;5158493;28;20228;-64
2021/08/21 00:47:57;;;;;;;5.23;3.70;;;14.00;99.90;;;;;;5153879;28;20207;-63
2021/08/21 00:50:34;;;;;;;5.43;3.33;;;14.00;99.90;;;;;;5155060;28;20234;-62
2021/08/21 00:53:06;;;;;;;5.67;3.47;;;13.90;99.90;;;;;;5153340;28;20500;-62
2021/08/21 00:55:38;;;;;;;4.40;3.17;;;13.90;99.90;;;;;;5148704;28;20205;-66
2021/08/21 00:58:11;;;;;;;5.13;3.00;;;13.90;99.90;;;;;;5152956;28;20204;-63
2021/08/21 01:00:43;;;;;;;3.77;2.20;;;13.80;99.90;;;;;;5163581;28;20680;-67
2021/08/21 01:03:18;;;;;;;2.90;2.30;;;13.80;99.90;;;;;;5161678;28;20669;-64
2021/08/21 01:05:50;;;;;;;3.37;2.33;;;13.80;99.90;;;;;;5184937;28;20234;-65
2021/08/21 01:08:22;;;;;;;3.07;2.30;;;13.80;99.90;;;;;;5180142;28;20198;-61
2021/08/21 01:10:53;;;;;;;2.43;2.10;;;13.70;99.90;;;;;;5162751;28;20207;-64
2021/08/21 01:13:28;;;;;;;4.43;2.90;;;13.70;99.90;;;;;;5160049;28;20655;-64
2021/08/21 01:16:02;;;;;;;4.57;2.07;;;13.70;99.90;;;;;;5170591;28;20257;-66
2021/08/21 01:18:35;;;;;;;2.47;2.10;;;13.70;99.90;;;;;;5170817;28;20210;-63
2021/08/21 01:21:10;;;;;;;5.23;2.60;;;13.70;99.90;;;;;;5170834;28;20278;-63
2021/08/21 01:23:42;;;;;;;3.73;2.20;;;13.70;99.90;;;;;;5170496;28;20348;-62
2021/08/21 01:26:16;;;;;;;3.97;2.50;;;13.70;99.90;;;;;;5170479;28;20242;-63
2021/08/21 01:28:48;;;;;;;4.10;2.63;;;13.70;99.90;;;;;;5170861;28;20214;-67
2021/08/21 01:31:20;;;;;;;3.27;2.33;;;13.70;99.90;;;;;;5170589;28;20231;-64
2021/08/21 01:33:54;;;;;;;3.27;2.20;;;13.70;99.90;;;;;;5169980;28;20211;-63
2021/08/21 01:36:26;;;;;;;2.77;2.03;;;13.70;99.90;;;;;;5169981;28;20236;-64
2021/08/21 01:38:58;;;;;;;2.67;2.00;;;13.60;99.90;;;;;;5170394;28;20204;-64
2021/08/21 01:41:31;;;;;;;2.67;2.03;;;13.60;99.90;;;;;;5170289;28;20250;-63
2021/08/21 01:44:17;;;;;;;3.70;2.00;;;13.60;99.90;;;;;;5152883;28;20223;-62
2021/08/21 01:46:49;;;;;;;3.73;2.00;;;13.50;99.90;;;;;;5152694;28;20231;-64
2021/08/21 01:49:24;;;;;;;4.03;1.80;;;13.40;99.90;;;;;;5152801;28;20203;-63
2021/08/21 01:52:04;;;;;;;2.67;2.07;;;13.40;99.90;;;;;;5169772;28;20238;-62
2021/08/21 01:54:36;;;;;;;3.60;1.77;;;13.40;99.90;;;;;;5170277;28;20192;-65
2021/08/21 01:57:08;;;;;;;4.07;1.90;;;13.30;99.90;;;;;;5152537;28;20361;-62
2021/08/21 01:59:45;;;;;;;4.00;1.80;;;13.20;99.90;;;;;;5169954;28;20222;-64
2021/08/21 02:02:21;;;;;;;2.67;1.80;;;13.20;99.90;;;;;;5169401;28;20243;-65
2021/08/21 02:04:53;;;;;;;2.57;2.10;;;13.10;99.90;;;;;;5169562;28;20263;-66
2021/08/21 02:07:27;;;;;;;3.57;2.00;;;13.10;99.90;;;;;;5170001;28;20250;-64
2021/08/21 02:10:01;;;;;;;3.17;2.20;;;13.10;99.90;;;;;;5153147;28;20208;-65
2021/08/21 02:12:36;;;;;;;3.87;2.43;;;13.10;99.90;;;;;;5169330;28;20239;-65
2021/08/21 02:15:16;;;;;;;3.30;2.17;;;13.10;99.90;;;;;;5169210;28;20207;-62
2021/08/21 02:17:48;;;;;;;3.27;2.30;;;13.10;99.90;;;;;;5169477;28;20235;-64
2021/08/21 02:20:21;;;;;;;3.47;2.40;;;13.10;99.90;;;;;;5169644;28;20570;-64
2021/08/21 02:22:55;;;;;;;6.43;2.70;;;13.10;99.90;;;;;;5136126;28;20235;-63
2021/08/21 02:25:29;;;;;;;3.43;2.73;;;13.10;99.90;;;;;;5169546;28;20674;-65
2021/08/21 02:28:08;;;;;;;3.97;2.53;;;13.10;99.90;;;;;;5136701;28;20231;-66
2021/08/21 02:30:41;;;;;;;2.60;2.20;;;13.10;99.90;;;;;;5137447;28;20188;-62
2021/08/21 02:33:13;;;;;;;5.60;2.80;;;13.10;99.90;;;;;;5169174;28;20218;-63
2021/08/21 02:35:45;;;;;;;3.60;2.60;;;13.10;99.90;;;;;;5136439;28;20540;-62
2021/08/21 02:38:17;;;;;;;4.80;2.87;;;13.10;99.90;;;;;;5169408;28;20509;-64
2021/08/21 02:40:49;;;;;;;4.43;2.97;;;13.10;99.90;;;;;;5169091;28;20553;-64
2021/08/21 02:43:21;;;;;;;3.73;2.77;;;13.10;99.90;;;;;;5151716;28;20235;-62
2021/08/21 02:45:53;;;;;;;4.40;2.93;;;13.10;99.90;;;;;;5152226;28;20236;-62
2021/08/21 02:48:28;;;;;;;3.73;2.50;;;13.20;99.90;;;;;;5151714;28;20290;-64
2021/08/21 02:51:00;;;;;;;5.07;2.70;;;13.20;99.90;;;;;;5151614;28;20203;-62
2021/08/21 02:53:32;;;;;;;2.70;2.30;;;13.20;99.90;;;;;;5168708;28;20231;-65
2021/08/21 02:56:04;;;;;;;3.73;2.10;;;13.10;99.90;;;;;;5152295;28;20211;-63
2021/08/21 02:58:36;;;;;;;3.40;2.30;;;13.20;99.90;;;;;;5119975;28;20231;-63
2021/08/21 03:01:08;;;;;;;3.77;2.27;;;13.20;99.90;;;;;;5135380;28;20240;-63
2021/08/21 03:03:42;;;;;;;3.60;2.43;;;13.20;99.90;;;;;;5151327;28;20322;-64
2021/08/21 03:06:15;;;;;;;3.13;2.10;;;13.20;99.90;;;;;;5135993;28;20278;-62
2021/08/21 03:08:47;;;;;;;5.27;2.20;;;13.20;99.90;;;;;;5168679;28;20297;-64
2021/08/21 03:11:19;;;;;;;4.73;2.47;;;13.30;99.90;;;;;;5151105;28;20211;-64
2021/08/21 03:13:51;;;;;;;5.80;2.63;;;13.30;99.90;;;;;;5151482;28;20583;-63
2021/08/21 03:16:25;;;;;;;4.90;2.40;;;13.30;99.90;;;;;;5151318;28;20210;-64
2021/08/21 03:19:02;;;;;;;3.50;2.20;;;13.30;99.90;;;;;;5151193;28;20231;-63
2021/08/21 03:21:33;;;;;;;2.60;2.00;;;13.30;99.90;;;;;;5168540;28;20202;-64
2021/08/21 03:24:06;;;;;;;3.23;1.90;;;13.30;99.90;;;;;;5151047;28;20239;-62
2021/08/21 03:26:43;;;;;;;3.10;2.03;;;13.30;99.90;;;;;;5167707;28;20538;-65
2021/08/21 03:29:15;;;;;;;4.60;2.37;;;13.40;99.90;;;;;;5167817;28;20238;-66
2021/08/21 03:31:47;;;;;;;3.63;1.90;;;13.40;99.90;;;;;;5167882;28;20199;-62
2021/08/21 03:34:24;;;;;;;2.33;1.80;;;13.40;99.90;;;;;;5151232;28;20227;-65
2021/08/21 03:36:56;;;;;;;3.03;2.20;;;13.40;99.90;;;;;;5151488;28;20200;-62
2021/08/21 03:39:28;;;;;;;2.60;2.30;;;13.40;99.90;;;;;;5150829;28;20235;-67
2021/08/21 03:42:06;;;;;;;3.47;2.47;;;13.40;99.90;;;;;;5167763;28;20207;-64
2021/08/21 03:44:40;;;;;;;2.87;2.10;;;13.40;99.90;;;;;;5151446;28;20239;-62
2021/08/21 03:47:12;;;;;;;3.20;2.27;;;13.40;99.90;;;;;;5150927;28;20222;-62
2021/08/21 03:49:46;;;;;;;3.20;1.83;;;13.40;99.90;;;;;;5150702;28;20223;-63
2021/08/21 03:52:20;;;;;;;2.83;2.00;;;13.50;99.90;;;;;;5167904;28;20635;-68
2021/08/21 03:54:55;;;;;;;2.80;1.90;;;13.50;99.90;;;;;;5167961;28;20246;-64
2021/08/21 03:57:27;;;;;;;3.80;2.20;;;13.50;99.90;;;;;;5151103;28;20556;-67
2021/08/21 03:59:58;;;;;;;2.90;2.40;;;13.50;99.90;;;;;;5167691;28;20570;-63
2021/08/21 04:02:30;;;;;;;2.70;1.93;;;13.50;99.90;;;;;;5150905;28;20211;-65
2021/08/21 04:05:05;;;;;;;5.83;2.43;;;13.50;99.90;;;;;;5150653;28;20245;-63
2021/08/21 04:07:37;;;;;;;3.93;1.90;;;13.50;99.90;;;;;;5150754;28;20217;-65
2021/08/21 04:10:10;;;;;;;3.20;2.30;;;13.50;99.90;;;;;;5167458;28;20239;-66
2021/08/21 04:12:43;;;;;;;4.17;2.27;;;13.60;99.90;;;;;;5150339;28;20203;-63
2021/08/21 04:15:15;;;;;;;4.07;2.63;;;13.60;99.90;;;;;;5150678;28;20683;-63
2021/08/21 04:17:46;;;;;;;2.60;2.20;;;13.60;99.90;;;;;;5167667;28;20224;-64
2021/08/21 04:20:20;;;;;;;3.87;2.47;;;13.70;99.90;;;;;;5167521;28;20618;-64
2021/08/21 04:22:56;;;;;;;5.70;2.53;;;13.70;99.90;;;;;;5167860;28;20640;-64
2021/08/21 04:25:28;;;;;;;3.53;2.47;;;13.80;99.90;;;;;;5166943;28;20254;-64
2021/08/21 04:28:03;;;;;;;5.57;2.97;;;13.80;99.90;;;;;;5150643;28;20204;-60
2021/08/21 04:30:35;;;;;;;3.60;2.87;;;13.80;99.90;;;;;;5134150;28;20237;-64
2021/08/21 04:33:07;;;;;;;6.30;3.17;;;13.80;99.90;;;;;;5167187;28;20214;-63
2021/08/21 04:35:41;;;;;;;3.50;2.37;;;13.80;99.90;;;;;;5150059;28;20231;-63
2021/08/21 04:38:13;;;;;;;4.30;2.47;;;13.90;99.90;;;;;;5154137;28;20207;-62
2021/08/21 04:40:49;;;;;;;5.63;2.90;;;13.90;99.90;;;;;;5171487;28;20231;-64
2021/08/21 04:43:20;;;;;;;4.80;2.60;;;13.90;99.90;;;;;;5154662;28;20207;-64
2021/08/21 04:45:52;;;;;;;4.07;2.83;;;13.90;99.90;;;;;;5171135;28;20227;-64
2021/08/21 04:48:25;;;;;;;5.37;2.90;;;13.90;99.90;;;;;;5171569;28;20267;-63
2021/08/21 04:51:00;;;;;;;4.37;3.13;;;13.90;99.90;;;;;;5170915;28;20231;-64
2021/08/21 04:53:32;;;;;;;4.10;3.00;;;13.90;99.90;;;;;;5170996;28;20195;-63
2021/08/21 04:56:05;;;;;;;3.90;2.80;;;13.90;99.90;;;;;;5170943;28;20235;-63
2021/08/21 04:58:39;;;;;;;5.20;3.17;;;13.90;99.90;;;;;;5171060;28;20204;-64
2021/08/21 05:01:11;;;;;;;6.67;3.33;;;14.00;99.90;;;;;;5172439;28;20254;-63
2021/08/21 05:03:43;;;;;;;3.73;2.90;;;14.00;99.90;;;;;;5157682;28;20619;-62
2021/08/21 05:06:15;;;;;;;5.70;3.17;;;14.00;99.90;;;;;;5174046;28;20667;-63
2021/08/21 05:08:47;;;;;;;4.13;3.40;;;14.10;99.90;;;;;;5173888;28;20203;-64
2021/08/21 05:11:24;;;;;;;5.37;3.87;;;14.20;99.90;;;;;;5173830;28;20227;-64
2021/08/21 05:13:58;;;;;;;5.53;3.30;;;14.20;99.90;;;;;;5174053;28;20202;-63
2021/08/21 05:16:30;;;;;;;6.57;3.83;;;14.20;99.90;;;;;;5190870;28;20566;-63
2021/08/21 05:19:11;;;;;;;7.10;4.20;;;14.20;99.90;;;;;;5190967;28;20195;-62
2021/08/21 05:21:48;;;;;;;7.93;4.30;;;14.30;99.90;;;;;;5190967;28;20230;-63
2021/08/21 05:24:20;;;;;;;7.67;4.40;;;14.30;99.90;;;;;;5190889;28;20241;-65
2021/08/21 05:26:57;;;;;;;7.43;4.07;;;14.30;99.90;;;;;;5173758;28;20227;-61
2021/08/21 05:29:32;;;;;;;5.87;4.17;;;14.40;99.90;;;;;;5174334;28;20190;-62
2021/08/21 05:32:05;;;;;;;6.47;4.93;;;14.40;99.90;;;;;;5157660;28;20674;-63
2021/08/21 05:34:37;;;;;;;8.70;4.73;;;14.50;99.90;;;;;;5190678;28;20631;-64
2021/08/21 05:37:11;;;;;;;9.33;5.87;;;14.50;99.90;;;;;;5173177;28;20230;-62
2021/08/21 05:39:43;;;;;;;7.97;5.00;;;14.60;99.90;;;;;;5190287;28;20214;-64
2021/08/21 05:42:15;;;;;;;6.30;4.47;;;14.60;99.90;;;;;;5173149;28;20234;-64
2021/08/21 05:44:47;;;;;;;7.10;4.67;;;14.70;99.90;;;;;;5173077;28;20226;-63
2021/08/21 05:47:20;;;;;;;7.53;4.40;;;14.80;99.90;;;;;;5173184;28;20301;-63
2021/08/21 05:49:52;;;;;;;8.03;5.30;;;14.80;99.90;;;;;;5172636;28;20214;-64
2021/08/21 05:52:28;;;;;;;7.50;4.63;;;14.90;99.90;;;;;;5190442;28;20643;-64
2021/08/21 05:55:00;;;;;;;8.77;5.03;;;14.90;99.90;;;;;;5173302;28;20523;-64
2021/08/21 05:57:32;;;;;;;8.90;5.20;;;15.10;99.90;;;;;;5157133;28;20238;-63
2021/08/21 06:00:05;;;;;;;7.33;4.03;;;15.10;99.90;;;;;;5190298;28;20225;-63
2021/08/21 06:02:37;;;;;;;8.20;3.97;;;15.20;99.90;;;;;;5190431;28;20211;-63
2021/08/21 06:05:11;;;;;;;11.80;4.60;;;15.30;99.90;;;;;;5189851;28;20233;-63
2021/08/21 06:07:43;;;;;;;9.07;4.87;;;15.50;99.90;;;;;;5189891;28;20598;-64
2021/08/21 06:10:15;;;;;;;8.50;5.00;;;15.60;99.90;;;;;;5190127;28;20187;-64
2021/08/21 06:12:49;;;;;;;7.87;4.67;;;15.70;99.90;;;;;;5189786;28;20658;-62
2021/08/21 06:15:23;;;;;;;8.13;4.80;;;15.80;99.90;;;;;;5172586;28;20287;-65
2021/08/21 06:17:55;;;;;;;8.40;4.30;;;15.90;99.90;;;;;;5189796;28;20531;-63
2021/08/21 06:20:27;;;;;;;6.77;4.30;;;16.10;99.90;;;;;;5172559;28;20191;-64
2021/08/21 06:22:59;;;;;;;8.27;4.40;;;16.20;99.90;;;;;;5156233;28;20225;-64
2021/08/21 06:25:33;;;;;;;6.10;4.07;;;16.40;99.90;;;;;;5189721;28;20237;-66
2021/08/21 06:28:08;;;;;;;6.87;3.97;;;16.60;99.90;;;;;;5189203;28;20202;-61
2021/08/21 06:30:43;;;;;;;8.20;3.40;;;16.70;99.90;;;;;;5189678;28;20182;-64
2021/08/21 06:33:15;;;;;;;5.90;3.83;;;16.80;99.90;;;;;;5189620;28;20209;-62
2021/08/21 06:35:47;;;;;;;6.93;4.07;;;16.90;99.90;;;;;;5172028;28;20206;-63
2021/08/21 06:38:19;;;;;;;5.13;3.47;;;17.00;99.90;;;;;;5172383;28;20533;-66
2021/08/21 06:40:51;;;;;;;3.90;3.27;;;17.10;99.90;;;;;;5172542;28;20207;-63
2021/08/21 06:43:24;;;;;;;7.37;3.93;;;17.10;99.90;;;;;;5156328;28;20207;-64
2021/08/21 06:45:56;;;;;;;4.50;3.10;;;17.20;99.90;;;;;;5172059;28;20306;-64
2021/08/21 06:48:29;;;;;;;5.50;3.28;;;17.30;99.90;;;;;;5172040;28;20593;-64
2021/08/21 06:51:01;;;;;;;4.13;2.75;;;17.30;99.90;;;;;;5172084;28;20206;-65
2021/08/21 06:53:35;;;;;;;7.13;3.53;;;17.40;99.90;;;;;;5189131;28;20202;-64
2021/08/21 06:56:08;;;;;;;8.37;3.93;;;17.50;99.90;;;;;;5189135;28;20211;-65
2021/08/21 06:58:40;;;;;;;4.47;3.43;;;17.50;99.90;;;;;;5172224;28;20221;-64
2021/08/21 07:01:12;;;;;;;4.27;2.73;;;17.50;99.90;;;;;;5188628;28;20234;-61
2021/08/21 07:03:44;;;;;;;6.55;3.40;;;17.70;99.90;;;;;;5171558;28;20594;-65
2021/08/21 07:06:17;;;;;;;6.65;3.47;;;17.90;99.90;;;;;;5188563;28;20222;-63
2021/08/21 07:08:49;;;;;;;3.55;2.80;;;18.10;99.90;;;;;;5188565;28;20214;-64
2021/08/21 07:11:21;;;;;;;3.90;2.55;;;18.10;99.90;;;;;;5155086;28;20210;-60
2021/08/21 07:13:53;;;;;;;5.10;3.38;;;18.10;99.90;;;;;;5188760;28;20203;-63
2021/08/21 07:16:29;;;;;;;6.78;3.05;;;18.00;99.90;;;;;;5171577;28;20207;-64
2021/08/21 07:19:02;;;;;;;8.18;3.28;;;18.00;99.90;;;;;;5188526;28;20194;-64
2021/08/21 07:21:34;;;;;;;7.13;3.33;;;18.00;99.90;;;;;;5188320;28;20302;-65
2021/08/21 07:24:06;;;;;;;6.80;3.30;;;17.90;99.90;;;;;;5171288;28;20206;-63
2021/08/21 07:26:38;;;;;;;7.32;3.33;;;17.90;99.90;;;;;;5171765;28;20484;-64
2021/08/21 07:29:10;;;;;;;4.43;2.50;;;18.00;99.90;;;;;;5188465;28;20498;-67
2021/08/21 07:31:42;;;;;;;5.53;2.97;;;18.10;99.90;;;;;;5188576;28;20203;-65
2021/08/21 07:34:14;;;;;;;4.25;2.90;;;18.50;99.90;;;;;;5188672;28;20305;-65
2021/08/21 07:36:46;;;;;;;8.90;2.95;;;18.90;99.90;;;;;;5188673;28;20231;-64
2021/08/21 07:39:18;;;;;;;6.00;2.55;;;19.50;99.90;;;;;;5171228;28;20198;-67
2021/08/21 07:41:53;;;;;;;3.70;2.20;;;20.40;99.90;;;;;;5155377;28;20207;-64
2021/08/21 07:44:27;;;;;;;5.15;2.08;;;21.40;99.90;;;;;;5171035;28;20213;-64
2021/08/21 07:46:59;;;;;;;5.63;2.20;;;21.90;99.90;;;;;;5188252;28;20631;-63
2021/08/21 07:49:33;;;;;;;6.07;2.20;;;21.90;99.90;;;;;;5171003;28;20261;-64
2021/08/21 07:52:05;;;;;;;6.75;1.95;;;22.20;99.90;;;;;;5187832;28;20294;-63
2021/08/21 07:54:37;;;;;;;6.78;1.35;;;22.50;99.90;;;;;;5170916;28;20218;-62
2021/08/21 07:57:11;;;;;;;2.47;1.35;;;22.60;99.90;;;;;;5170619;28;20253;-63
2021/08/21 07:59:45;;;;;;;4.00;1.50;;;22.70;99.90;;;;;;5187934;28;20493;-66
2021/08/21 08:02:17;;;;;;;3.35;1.38;;;22.70;99.90;;;;;;5187643;28;20249;-66
2021/08/21 08:04:49;;;;;;;2.75;1.33;;;22.60;99.90;;;;;;5187986;28;20226;-64
2021/08/21 08:07:21;;;;;;;1.95;1.10;;;22.50;99.90;;;;;;5187506;28;20655;-63
2021/08/21 08:09:55;;;;;;;4.13;1.83;;;22.50;99.90;;;;;;5170371;28;20213;-63
2021/08/21 08:12:27;;;;;;;3.75;1.38;;;22.30;99.90;;;;;;5169987;28;20226;-63
2021/08/21 08:14:59;;;;;;;3.58;1.40;;;22.00;99.90;;;;;;5181456;28;20206;-61
2021/08/21 08:17:31;;;;;;;2.90;1.10;;;22.00;99.90;;;;;;5168277;28;20242;-63
2021/08/21 08:20:06;;;;;;;3.85;1.38;;;22.00;99.90;;;;;;5181591;28;20222;-65
2021/08/21 08:22:38;;;;;;;2.28;1.08;;;21.80;99.90;;;;;;5187610;28;20233;-61
2021/08/21 08:25:11;;;;;;;2.75;1.08;;;21.70;99.90;;;;;;5187953;28;20587;-64
2021/08/21 08:27:46;;;;;;;2.47;0.95;;;21.80;99.90;;;;;;5186011;28;20700;-63
2021/08/21 08:30:18;;;;;;;2.00;1.05;;;22.00;99.90;;;;;;5170866;28;20182;-63
2021/08/21 08:32:50;;;;;;;2.45;1.15;;;22.20;99.90;;;;;;5170302;28;20237;-64
2021/08/21 08:35:23;;;;;;;2.95;1.20;;;22.00;99.90;;;;;;5158594;28;20223;-63
2021/08/21 08:37:55;;;;;;;4.68;1.10;;;21.70;99.90;;;;;;5150425;28;20246;-64
2021/08/21 08:40:29;;;;;;;2.33;1.05;;;21.30;99.90;;;;;;5135096;28;20595;-67
2021/08/21 08:43:03;;;;;;;5.20;1.13;;;20.90;99.90;;;;;;5134274;28;20652;-65
2021/08/21 08:45:36;;;;;;;3.05;1.00;;;20.60;99.90;;;;;;5183858;28;20253;-68
2021/08/21 08:48:08;;;;;;;2.53;1.10;;;20.30;99.90;;;;;;5154139;28;20237;-67
2021/08/21 08:50:42;;;;;;;6.20;1.10;;;20.20;99.90;;;;;;5164759;28;20207;-64
2021/08/21 08:53:14;;;;;;;2.08;1.10;;;20.00;99.90;;;;;;5149715;28;20223;-68
2021/08/21 08:55:46;;;;;;;3.10;1.50;;;19.80;99.90;;;;;;5166813;28;20208;-66
2021/08/21 08:58:18;;;;;;;3.05;1.58;;;19.90;99.90;;;;;;5166860;28;20235;-67
2021/08/21 09:00:50;;;;;;;2.95;1.35;;;19.90;99.90;;;;;;5150117;28;20243;-69
2021/08/21 09:03:26;;;;;;;2.58;1.25;;;20.00;99.90;;;;;;5166756;28;20239;-65
2021/08/21 09:05:58;;;;;;;2.15;0.85;;;20.30;99.90;;;;;;5149752;28;20245;-65
2021/08/21 09:08:33;;;;;;;3.75;1.00;;;20.30;99.90;;;;;;5167106;28;20228;-68
2021/08/21 09:11:23;;;;;;;2.88;1.10;;;20.40;99.90;;;;;;5175245;28;20233;-64
2021/08/21 09:14:30;;;;;;;3.13;1.00;;;20.30;99.90;;;;;;5169796;28;20326;-65
2021/08/21 09:17:20;;;;;;;5.38;1.35;;;20.50;99.90;;;;;;5187400;28;20207;-63
2021/08/21 09:20:05;;;;;;;3.85;1.00;;;20.80;99.90;;;;;;5169789;28;20227;-65
2021/08/21 09:22:38;;;;;;;3.05;1.02;;;21.00;99.90;;;;;;5187247;28;20195;-66
2021/08/21 09:25:10;;;;;;;3.90;1.20;;;21.10;99.90;;;;;;5172979;28;20231;-65
2021/08/21 09:27:42;;;;;;;1.80;0.90;;;21.00;99.90;;;;;;5173589;28;20198;-64
2021/08/21 09:30:17;;;;;;;4.22;0.95;;;20.90;99.90;;;;;;5173657;28;20717;-64
2021/08/21 09:32:49;;;;;;;3.88;0.80;;;20.70;99.90;;;;;;5174490;28;20202;-66
2021/08/21 09:35:21;;;;;;;3.42;0.93;;;20.40;99.90;;;;;;5190340;28;20230;-64
2021/08/21 09:37:57;;;;;;;4.70;1.60;;;20.00;99.90;;;;;;5189148;28;20213;-65
2021/08/21 09:40:37;;;;;;;1.85;1.02;;;19.50;99.90;;;;;;5152822;28;20246;-66
2021/08/21 09:43:22;;;;;;;2.75;1.20;;;19.00;99.90;;;;;;5152847;28;20215;-62
2021/08/21 09:46:12;;;;;;;3.08;1.10;;;18.80;99.90;;;;;;5174126;28;20231;-64
2021/08/21 09:49:07;;;;;;;4.78;1.30;;;18.70;99.90;;;;;;5190400;28;20214;-67
2021/08/21 09:51:45;;;;;;;4.03;1.20;;;18.80;99.90;;;;;;5173201;28;20537;-64
2021/08/21 09:54:19;;;;;;;3.75;1.50;;;18.80;99.90;;;;;;5173301;28;20203;-64
2021/08/21 09:56:56;;;;;;;4.80;1.30;;;19.00;99.90;;;;;;5173136;28;20671;-67
2021/08/21 09:59:37;;;;;;;4.82;1.40;;;19.10;99.90;;;;;;5190357;28;20218;-65
2021/08/21 10:02:15;;;;;;;8.07;2.30;;;19.10;99.90;;;;;;5188930;28;20231;-65
2021/08/21 10:04:47;;;;;;;2.75;1.25;;;19.30;99.90;;;;;;5173767;28;20613;-65
2021/08/21 10:07:21;;;;;;;3.13;1.00;;;19.60;99.90;;;;;;5172765;28;20196;-66
2021/08/21 10:09:54;;;;;;;3.25;1.20;;;19.90;99.90;;;;;;5170116;28;20553;-63
2021/08/21 10:12:26;;;;;;;2.85;0.90;;;20.10;99.90;;;;;;5169600;28;20208;-64
2021/08/21 10:15:00;;;;;;;2.13;0.77;;;20.40;99.90;;;;;;5169613;28;20203;-63
2021/08/21 10:17:33;;;;;;;2.25;0.90;;;20.40;99.90;;;;;;5169723;28;20536;-67
2021/08/21 10:20:06;;;;;;;3.00;0.82;;;20.30;99.90;;;;;;5152590;28;20695;-64
2021/08/21 10:22:39;;;;;;;3.97;0.73;;;20.20;99.90;;;;;;5152644;28;20485;-65
2021/08/21 10:25:14;;;;;;;2.55;0.80;;;20.10;99.90;;;;;;5152696;28;20224;-64
2021/08/21 10:28:07;;;;;;;2.00;0.82;;;20.00;99.90;;;;;;5151967;28;20231;-63
2021/08/21 10:30:47;;;;;;;2.60;1.00;;;19.90;99.90;;;;;;5169408;28;20203;-67
2021/08/21 10:33:19;;;;;;;2.47;0.90;;;20.00;99.90;;;;;;5177936;28;20289;-64
2021/08/21 10:35:54;;;;;;;3.33;0.88;;;20.00;99.90;;;;;;5188825;28;20207;-66
2021/08/21 10:38:30;;;;;;;3.47;1.00;;;20.10;99.90;;;;;;5189098;28;20234;-66
2021/08/21 10:41:11;;;;;;;3.17;1.20;;;20.40;99.90;;;;;;5172324;28;20226;-66
2021/08/21 10:43:49;;;;;;;3.58;1.13;;;20.40;99.90;;;;;;5189311;28;20203;-64
2021/08/21 10:46:30;;;;;;;5.85;1.15;;;20.50;99.90;;;;;;5189003;28;20225;-65
2021/08/21 10:49:04;;;;;;;4.18;0.77;;;20.40;99.90;;;;;;5189099;28;20237;-68
2021/08/21 10:51:45;;;;;;;3.97;0.80;;;20.50;99.90;;;;;;5189181;28;20267;-67
2021/08/21 10:54:26;;;;;;;2.47;0.70;;;20.20;99.90;;;;;;5189347;28;20507;-65
2021/08/21 10:57:25;;;;;;;1.58;0.80;;;20.20;99.90;;;;;;5189345;28;20638;-65
2021/08/21 10:59:57;;;;;;;2.95;0.70;;;20.20;99.90;;;;;;5171531;28;20226;-65
2021/08/21 11:02:32;;;;;;;4.47;0.60;;;20.10;99.90;;;;;;5189112;28;20241;-66
2021/08/21 11:05:05;;;;;;;1.65;0.50;;;20.20;99.90;;;;;;5188833;28;20202;-64
2021/08/21 11:07:41;;;;;;;1.92;0.68;;;20.20;99.90;;;;;;5153887;28;20598;-65
2021/08/21 11:10:18;;;;;;;2.05;0.55;;;20.30;99.90;;;;;;5170632;28;20217;-66
2021/08/21 11:12:51;;;;;;;2.33;0.65;;;20.30;99.90;;;;;;5187988;28;20281;-64
2021/08/21 11:15:33;;;;;;;3.97;0.90;;;20.30;99.90;;;;;;5187797;28;20606;-63
2021/08/21 11:18:20;;;;;;;2.65;1.20;;;20.40;99.90;;;;;;5170169;28;20202;-65
2021/08/21 11:20:54;;;;;;;2.22;0.75;;;20.20;99.90;;;;;;5187528;28;20192;-64
2021/08/21 11:23:26;;;;;;;1.83;0.70;;;20.50;99.90;;;;;;5171466;28;20263;-64
2021/08/21 11:26:25;;;;;;;3.50;0.70;;;20.50;99.90;;;;;;5154969;28;20230;-65
2021/08/21 11:29:08;;;;;;;1.90;0.93;;;20.60;99.90;;;;;;5188190;28;20239;-65
2021/08/21 11:31:59;;;;;;;2.75;0.90;;;20.40;99.90;;;;;;5188138;28;20604;-68
2021/08/21 11:34:37;;;;;;;2.90;0.80;;;20.40;99.90;;;;;;5178467;28;20230;-68
2021/08/21 11:37:09;;;;;;;3.45;0.60;;;20.30;99.90;;;;;;5168040;28;20525;-65
2021/08/21 11:39:56;;;;;;;1.67;0.60;;;20.30;99.90;;;;;;5160448;28;20228;-68
2021/08/21 11:42:49;;;;;;;1.65;0.60;;;20.10;99.90;;;;;;5180736;28;20198;-65
2021/08/21 11:45:23;;;;;;;2.05;0.60;;;19.80;99.90;;;;;;5170266;28;20230;-65
2021/08/21 11:47:56;;;;;;;2.70;0.57;;;19.70;99.90;;;;;;5187876;28;20202;-66
2021/08/21 11:50:41;;;;;;;2.08;0.60;;;19.60;99.90;;;;;;5175426;28;20559;-66
2021/08/21 11:53:33;;;;;;;2.15;0.68;;;19.60;99.90;;;;;;5166887;28;20206;-66
2021/08/21 11:56:05;;;;;;;2.45;0.60;;;19.80;99.90;;;;;;5176533;28;20515;-66
2021/08/21 11:58:48;;;;;;;1.15;0.50;;;19.80;99.90;;;;;;5174288;28;20204;-67
2021/08/21 12:01:31;;;;;;;2.72;0.60;;;19.90;99.90;;;;;;5166729;28;20234;-64
2021/08/21 12:06:36;;;;;;;4.20;0.77;;;19.80;99.90;;;;;;5187486;28;20302;-66
2021/08/21 12:09:17;;;;;;;2.72;0.55;;;19.80;99.90;;;;;;5169109;28;20603;-65
2021/08/21 12:11:51;;;;;;;2.03;0.60;;;20.00;99.90;;;;;;5157209;28;20198;-64
2021/08/21 12:14:25;;;;;;;2.58;0.70;;;20.10;99.90;;;;;;5175621;28;20265;-66
2021/08/21 12:16:57;;;;;;;3.13;0.80;;;20.10;99.90;;;;;;5166344;28;20214;-65
2021/08/21 12:19:33;;;;;;;3.05;0.70;;;20.20;99.90;;;;;;5166175;28;20199;-64
2021/08/21 12:22:05;;;;;;;1.67;0.77;;;20.30;99.90;;;;;;5176529;28;20198;-66
2021/08/21 12:24:54;;;;;;;1.40;0.60;;;20.30;99.90;;;;;;5187789;28;20678;-65
2021/08/21 12:27:28;;;;;;;3.65;0.57;;;20.40;99.90;;;;;;5182885;28;20338;-65
2021/08/21 12:30:07;;;;;;;5.18;0.80;;;20.50;99.90;;;;;;5158972;28;20206;-65
2021/08/21 12:32:42;;;;;;;2.33;0.60;;;20.60;99.90;;;;;;5170066;28;20611;-66
2021/08/21 12:35:17;;;;;;;1.75;0.60;;;20.60;99.90;;;;;;5169835;28;20683;-66
2021/08/21 12:38:03;;;;;;;2.63;1.38;;;20.50;99.90;;;;;;5169818;28;20236;-63
2021/08/21 12:40:41;;;;;;;2.38;0.63;;;20.60;99.90;;;;;;5170447;28;20229;-68
2021/08/21 12:43:17;;;;;;;2.47;0.65;;;20.50;99.90;;;;;;5187886;28;20197;-66
2021/08/21 12:45:49;;;;;;;2.35;0.70;;;20.40;99.90;;;;;;5187041;28;20296;-68
2021/08/21 12:48:25;;;;;;;1.13;0.70;;;20.40;99.90;;;;;;5170196;28;20187;-65
2021/08/21 12:51:05;;;;;;;5.43;0.63;;;20.50;99.90;;;;;;5187190;28;20249;-64
2021/08/21 12:53:36;;;;;;;3.00;0.90;;;20.40;99.90;;;;;;5187296;28;20666;-65
2021/08/21 12:56:10;;;;;;;2.75;1.40;;;20.10;99.90;;;;;;5187554;28;20231;-67
2021/08/21 12:59:07;;;;;;;1.38;0.70;;;20.10;99.90;;;;;;5190075;28;20204;-63
2021/08/21 13:01:39;;;;;;;2.35;0.70;;;20.30;99.90;;;;;;5190946;28;20250;-64
2021/08/21 13:04:12;;;;;;;4.30;0.80;;;20.20;99.90;;;;;;5173621;28;20241;-64
2021/08/21 13:06:59;;;;;;;1.33;0.70;;;20.20;99.90;;;;;;5173820;28;20234;-64
2021/08/21 13:09:31;;;;;;;1.30;0.60;;;20.10;99.90;;;;;;5191300;28;20191;-67
2021/08/21 13:12:05;;;;;;;1.45;0.52;;;20.20;99.90;;;;;;5191289;28;20235;-63
2021/08/21 13:14:37;;;;;;;1.65;1.17;;;20.30;99.90;;;;;;5190110;28;20280;-62
2021/08/21 13:17:13;;;;;;;2.00;0.75;;;20.40;99.90;;;;;;5187941;28;20559;-64
2021/08/21 13:19:48;;;;;;;3.72;1.05;;;20.50;99.90;;;;;;5191041;28;20202;-65
2021/08/21 13:22:20;;;;;;;3.08;1.77;;;20.40;99.90;;;;;;5190616;28;20229;-63
2021/08/21 13:24:52;;;;;;;3.75;1.42;;;20.40;99.90;;;;;;5190254;28;20211;-63
2021/08/21 13:27:25;;;;;;;3.72;1.40;;;20.40;99.90;;;;;;5172690;28;20249;-66